Time;durP1;ratioP1;P1;durP2;ratioP2;P2;SDS_P1;SDS_P2;PMS_P1;PMS_P2;Temp;Humidity;BMP_temperature;BMP_pressure;BME280_temperature;BME280_humidity;BME280_pressure;Samples;Min_cycle;Max_cycle;Signal;HPM_P1;HPM_P2
2023/05/15 00:02:04;;;;;;;;;;;15.30;64.00;;;;;;4982163;28;19921;-63
2023/05/15 00:04:30;;;;;;;;;;;15.30;64.00;;;;;;5000472;28;19921;-62
2023/05/15 00:06:56;;;;;;;;;;;15.30;63.80;;;;;;4976364;28;19998;-62
2023/05/15 00:09:21;;;;;;;;;;;15.20;63.70;;;;;;4986083;28;20396;-62
2023/05/15 00:11:47;;;;;;;;;;;15.20;63.60;;;;;;4987604;28;19910;-62
2023/05/15 00:14:12;;;;;;;;;;;15.20;63.50;;;;;;4992263;28;20289;-62
2023/05/15 00:16:37;;;;;;;;;;;15.20;63.80;;;;;;4977637;28;19914;-68
2023/05/15 00:19:03;;;;;;;;;;;15.10;63.80;;;;;;4977803;28;19965;-68
2023/05/15 00:21:28;;;;;;;;;;;15.10;63.60;;;;;;4978322;28;19933;-67
2023/05/15 00:23:55;;;;;;;;;;;15.10;63.50;;;;;;4978030;28;20266;-67
2023/05/15 00:26:22;;;;;;;;;;;15.00;63.50;;;;;;4977611;28;19919;-68
2023/05/15 00:28:47;;;;;;;;;;;15.00;63.40;;;;;;4996081;28;19924;-67
2023/05/15 00:31:13;;;;;;;;;;;14.90;63.40;;;;;;4995864;28;19992;-68
2023/05/15 00:33:39;;;;;;;;;;;14.90;63.40;;;;;;4997552;28;19918;-68
2023/05/15 00:36:04;;;;;;;;;;;14.80;63.40;;;;;;4997492;28;20269;-68
2023/05/15 00:38:32;;;;;;;;;;;14.80;63.40;;;;;;4996470;28;19922;-68
2023/05/15 00:40:58;;;;;;;;;;;14.80;63.40;;;;;;4979131;28;19910;-69
2023/05/15 00:43:24;;;;;;;;;;;14.80;63.40;;;;;;4996669;28;20348;-68
2023/05/15 00:45:51;;;;;;;;;;;14.70;63.50;;;;;;4982594;28;19920;-68
2023/05/15 00:48:16;;;;;;;;;;;14.70;63.40;;;;;;4976904;28;20008;-69
2023/05/15 00:50:42;;;;;;;;;;;14.70;63.50;;;;;;4977450;28;20385;-68
2023/05/15 00:53:08;;;;;;;;;;;14.60;63.70;;;;;;4976864;28;19915;-69
2023/05/15 00:55:34;;;;;;;;;;;14.60;63.90;;;;;;4977125;28;20016;-69
2023/05/15 00:58:00;;;;;;;;;;;14.60;63.90;;;;;;4993808;28;19976;-68
2023/05/15 01:00:26;;;;;;;;;;;14.50;63.90;;;;;;4991865;28;19914;-68
2023/05/15 01:02:52;;;;;;;;;;;14.50;63.70;;;;;;4977527;28;19918;-68
2023/05/15 01:05:18;;;;;;;;;;;14.40;63.40;;;;;;4976351;28;19910;-68
2023/05/15 01:07:48;;;;;;;;;;;14.40;63.40;;;;;;4977577;28;19918;-69
2023/05/15 01:10:14;;;;;;;;;;;14.40;63.50;;;;;;4989735;28;19918;-68
2023/05/15 01:12:40;;;;;;;;;;;14.40;63.50;;;;;;4977914;28;19918;-69
2023/05/15 01:15:05;;;;;;;;;;;14.30;63.40;;;;;;4984485;28;19933;-69
2023/05/15 01:17:31;;;;;;;;;;;14.30;63.40;;;;;;4996320;28;19984;-68
2023/05/15 01:19:57;;;;;;;;;;;14.30;63.40;;;;;;4996349;28;19940;-68
2023/05/15 01:22:46;;;;;;;;;;;14.20;63.30;;;;;;4996034;28;19909;-68
2023/05/15 01:25:28;;;;;;;;;;;14.20;63.20;;;;;;4990404;28;19918;-68
2023/05/15 01:27:55;;;;;;;;;;;14.10;63.30;;;;;;4996947;28;20393;-68
2023/05/15 01:30:22;;;;;;;;;;;14.10;63.40;;;;;;4996937;28;19910;-68
2023/05/15 01:33:06;;;;;;;;;;;14.10;63.20;;;;;;4997006;28;20060;-68
2023/05/15 01:35:54;;;;;;;;;;;14.10;63.20;;;;;;4996300;28;19909;-68
2023/05/15 01:38:39;;;;;;;;;;;14.00;63.40;;;;;;4996641;28;20296;-68
2023/05/15 01:41:22;;;;;;;;;;;14.00;63.50;;;;;;4996902;28;19914;-68
2023/05/15 01:43:51;;;;;;;;;;;14.00;63.50;;;;;;4996684;28;19922;-68
2023/05/15 01:46:19;;;;;;;;;;;13.90;63.50;;;;;;4997282;28;19981;-68
2023/05/15 01:48:44;;;;;;;;;;;14.00;64.00;;;;;;4998192;28;20373;-68
2023/05/15 01:51:11;;;;;;;;;;;14.00;64.00;;;;;;5001627;28;19914;-68
2023/05/15 01:53:38;;;;;;;;;;;14.00;63.70;;;;;;5002171;28;19914;-69
2023/05/15 01:56:05;;;;;;;;;;;13.90;63.90;;;;;;5001245;28;19925;-68
2023/05/15 01:58:31;;;;;;;;;;;14.00;63.90;;;;;;5001332;28;19913;-68
2023/05/15 02:00:56;;;;;;;;;;;13.90;63.60;;;;;;5000166;28;19993;-69
2023/05/15 02:03:23;;;;;;;;;;;13.90;63.40;;;;;;4996521;28;19914;-69
2023/05/15 02:05:49;;;;;;;;;;;13.80;63.40;;;;;;4981724;28;19915;-69
2023/05/15 02:08:15;;;;;;;;;;;13.80;63.20;;;;;;4980365;28;20541;-69
2023/05/15 02:10:41;;;;;;;;;;;13.80;63.10;;;;;;4980233;28;19914;-69
2023/05/15 02:13:07;;;;;;;;;;;13.70;63.20;;;;;;4979020;28;19965;-68
2023/05/15 02:15:34;;;;;;;;;;;13.70;63.30;;;;;;4979748;28;19922;-68
2023/05/15 02:17:59;;;;;;;;;;;13.70;63.60;;;;;;4979549;28;19919;-68
2023/05/15 02:20:25;;;;;;;;;;;13.70;63.90;;;;;;4979912;28;19960;-68
2023/05/15 02:22:50;;;;;;;;;;;13.70;64.00;;;;;;4981248;28;19914;-68
2023/05/15 02:25:16;;;;;;;;;;;13.70;64.00;;;;;;4979416;28;19918;-68
2023/05/15 02:27:45;;;;;;;;;;;13.70;63.90;;;;;;4995424;28;19914;-68
2023/05/15 02:30:46;;;;;;;;;;;13.70;63.70;;;;;;4999550;28;19917;-68
2023/05/15 02:33:28;;;;;;;;;;;13.70;63.60;;;;;;4920841;29;20387;-68
2023/05/15 02:35:57;;;;;;;;;;;13.70;63.40;;;;;;4974184;28;20284;-68
2023/05/15 02:38:27;;;;;;;;;;;13.60;63.30;;;;;;4997979;28;19972;-68
2023/05/15 02:40:54;;;;;;;;;;;13.50;63.30;;;;;;4979973;28;19918;-68
2023/05/15 02:43:19;;;;;;;;;;;13.50;63.70;;;;;;4979716;28;19921;-63
2023/05/15 02:45:46;;;;;;;;;;;13.50;63.70;;;;;;4969120;28;19914;-63
2023/05/15 02:48:12;;;;;;;;;;;13.50;63.50;;;;;;4975111;28;19922;-63
2023/05/15 02:50:38;;;;;;;;;;;13.50;63.60;;;;;;4986534;28;19914;-63
2023/05/15 02:53:04;;;;;;;;;;;13.50;63.90;;;;;;4994505;28;20258;-63
2023/05/15 02:55:30;;;;;;;;;;;13.50;63.80;;;;;;4994758;28;19957;-63
2023/05/15 02:57:55;;;;;;;;;;;13.40;63.70;;;;;;4994483;28;19973;-63
2023/05/15 03:00:21;;;;;;;;;;;13.40;63.50;;;;;;4992338;28;20024;-63
2023/05/15 03:02:46;;;;;;;;;;;13.40;63.30;;;;;;4982653;28;19914;-63
2023/05/15 03:05:12;;;;;;;;;;;13.30;63.10;;;;;;4994425;28;19909;-63
2023/05/15 03:07:37;;;;;;;;;;;13.30;63.30;;;;;;4994681;28;19914;-63
2023/05/15 03:10:03;;;;;;;;;;;13.30;63.40;;;;;;4980863;28;19925;-63
2023/05/15 03:12:29;;;;;;;;;;;13.30;63.40;;;;;;4992928;28;19937;-63
2023/05/15 03:14:54;;;;;;;;;;;13.30;63.30;;;;;;4980045;28;19961;-63
2023/05/15 03:17:20;;;;;;;;;;;13.30;63.30;;;;;;4974938;28;20376;-63
2023/05/15 03:19:45;;;;;;;;;;;13.20;63.20;;;;;;4990230;28;19958;-68
2023/05/15 03:22:11;;;;;;;;;;;13.20;63.10;;;;;;4998887;28;20004;-68
2023/05/15 03:24:37;;;;;;;;;;;13.20;63.00;;;;;;4989169;28;20278;-67
2023/05/15 03:27:03;;;;;;;;;;;13.10;63.10;;;;;;4991467;28;20000;-67
2023/05/15 03:29:29;;;;;;;;;;;13.10;63.30;;;;;;4995833;28;19922;-68
2023/05/15 03:31:54;;;;;;;;;;;13.10;63.50;;;;;;4999483;28;19921;-68
2023/05/15 03:34:20;;;;;;;;;;;13.10;63.80;;;;;;4981669;28;19918;-68
2023/05/15 03:36:45;;;;;;;;;;;13.10;63.90;;;;;;4981037;28;19958;-67
2023/05/15 03:39:10;;;;;;;;;;;13.20;63.80;;;;;;4979812;28;19914;-67
2023/05/15 03:41:36;;;;;;;;;;;13.10;63.70;;;;;;4987242;28;19933;-67
2023/05/15 03:44:01;;;;;;;;;;;13.10;63.80;;;;;;4999108;28;20366;-67
2023/05/15 03:46:27;;;;;;;;;;;13.10;64.10;;;;;;4986812;28;19918;-67
2023/05/15 03:48:53;;;;;;;;;;;13.10;64.20;;;;;;4999752;28;19922;-67
2023/05/15 03:51:19;;;;;;;;;;;13.10;64.00;;;;;;4991320;28;19910;-67
2023/05/15 03:53:44;;;;;;;;;;;13.10;64.00;;;;;;4979524;28;19925;-67
2023/05/15 03:56:10;;;;;;;;;;;13.20;64.00;;;;;;4979844;28;20305;-67
2023/05/15 03:58:35;;;;;;;;;;;13.20;63.90;;;;;;4979065;28;19929;-67
2023/05/15 04:01:01;;;;;;;;;;;13.20;64.00;;;;;;4979343;28;19910;-68
2023/05/15 04:03:26;;;;;;;;;;;13.20;64.10;;;;;;4977287;28;19922;-67
2023/05/15 04:05:52;;;;;;;;;;;13.30;64.30;;;;;;4981108;28;19913;-68
2023/05/15 04:08:17;;;;;;;;;;;13.30;64.90;;;;;;4985817;28;19949;-68
2023/05/15 04:10:42;;;;;;;;;;;13.50;65.50;;;;;;4997391;28;19917;-69
2023/05/15 04:13:08;;;;;;;;;;;13.70;66.00;;;;;;4980438;28;19925;-69
2023/05/15 04:15:34;;;;;;;;;;;13.90;66.30;;;;;;4964101;28;19965;-68
2023/05/15 04:17:59;;;;;;;;;;;14.20;66.60;;;;;;4980236;28;19918;-68
2023/05/15 04:20:25;;;;;;;;;;;14.40;66.90;;;;;;4992932;28;20432;-68
2023/05/15 04:22:50;;;;;;;;;;;14.70;67.10;;;;;;5001949;28;19941;-69
2023/05/15 04:25:16;;;;;;;;;;;15.00;67.10;;;;;;4999339;28;19920;-69
2023/05/15 04:27:42;;;;;;;;;;;15.30;67.10;;;;;;5002977;28;19997;-68
2023/05/15 04:30:08;;;;;;;;;;;15.60;67.30;;;;;;5002525;28;19913;-68
2023/05/15 04:32:34;;;;;;;;;;;16.00;67.20;;;;;;4982763;28;20019;-69
2023/05/15 04:35:10;;;;;;;;;;;16.20;67.10;;;;;;4995637;28;19982;-68
2023/05/15 04:37:36;;;;;;;;;;;16.50;67.20;;;;;;4981602;28;19921;-69
2023/05/15 04:40:01;;;;;;;;;;;16.80;67.50;;;;;;4985903;28;19933;-69
2023/05/15 04:42:27;;;;;;;;;;;17.20;67.60;;;;;;4993174;28;20369;-69
2023/05/15 04:44:53;;;;;;;;;;;17.40;67.70;;;;;;4989070;28;19941;-68
2023/05/15 04:47:18;;;;;;;;;;;17.80;67.70;;;;;;4999563;28;19924;-69
2023/05/15 04:49:44;;;;;;;;;;;18.00;67.60;;;;;;4995345;28;19961;-69
2023/05/15 04:52:09;;;;;;;;;;;18.30;67.50;;;;;;4986285;28;19914;-68
2023/05/15 04:54:35;;;;;;;;;;;18.60;67.40;;;;;;4985384;28;20270;-69
2023/05/15 04:57:00;;;;;;;;;;;18.80;67.40;;;;;;4981206;28;19925;-69
2023/05/15 04:59:27;;;;;;;;;;;19.10;67.30;;;;;;4985845;28;19918;-69
2023/05/15 05:01:53;;;;;;;;;;;19.30;67.00;;;;;;4996143;28;19913;-69
2023/05/15 05:04:19;;;;;;;;;;;19.50;65.80;;;;;;4980545;28;20409;-69
2023/05/15 05:06:47;;;;;;;;;;;19.70;66.10;;;;;;5011328;28;19914;-69
2023/05/15 05:09:13;;;;;;;;;;;19.90;66.60;;;;;;4986929;28;19942;-68
2023/05/15 05:11:42;;;;;;;;;;;20.20;67.10;;;;;;4976294;28;19910;-68
2023/05/15 05:14:10;;;;;;;;;;;20.40;67.20;;;;;;4987884;28;20362;-68
2023/05/15 05:16:36;;;;;;;;;;;20.70;67.30;;;;;;4988844;28;20435;-68
2023/05/15 05:19:01;;;;;;;;;;;21.00;67.50;;;;;;4985922;28;19918;-68
2023/05/15 05:21:27;;;;;;;;;;;21.30;67.20;;;;;;4974295;28;19917;-68
2023/05/15 05:23:52;;;;;;;;;;;21.50;67.30;;;;;;4991146;28;19968;-67
2023/05/15 05:26:18;;;;;;;;;;;21.80;67.30;;;;;;5025631;28;19957;-69
2023/05/15 05:28:43;;;;;;;;;;;22.00;67.20;;;;;;5013086;28;19981;-69
2023/05/15 05:31:09;;;;;;;;;;;22.30;67.80;;;;;;5008445;28;19913;-69
2023/05/15 05:33:35;;;;;;;;;;;22.60;68.40;;;;;;5002888;28;19929;-68
2023/05/15 05:36:00;;;;;;;;;;;23.00;68.90;;;;;;4990685;28;19921;-68
2023/05/15 05:38:26;;;;;;;;;;;23.30;69.10;;;;;;5001193;28;19922;-69
2023/05/15 05:40:52;;;;;;;;;;;23.70;69.40;;;;;;5000522;28;19968;-69
2023/05/15 05:43:17;;;;;;;;;;;24.10;69.60;;;;;;5010248;28;19986;-69
2023/05/15 05:45:43;;;;;;;;;;;24.50;69.70;;;;;;5014432;28;19922;-68
2023/05/15 05:48:08;;;;;;;;;;;24.90;69.90;;;;;;5010204;28;19969;-69
2023/05/15 05:50:33;;;;;;;;;;;25.30;69.20;;;;;;4981612;28;20012;-69
2023/05/15 05:52:59;;;;;;;;;;;25.70;68.90;;;;;;4999473;28;19918;-68
2023/05/15 05:55:25;;;;;;;;;;;26.00;68.80;;;;;;4996207;28;19956;-66
2023/05/15 05:57:50;;;;;;;;;;;26.30;68.80;;;;;;4988198;28;19976;-67
2023/05/15 06:00:16;;;;;;;;;;;26.70;68.90;;;;;;5000702;28;19937;-68
2023/05/15 06:02:41;;;;;;;;;;;27.10;68.80;;;;;;5002127;28;19972;-68
2023/05/15 06:05:07;;;;;;;;;;;27.40;67.90;;;;;;5007435;28;19972;-68
2023/05/15 06:07:33;;;;;;;;;;;27.70;67.50;;;;;;4999058;28;19927;-67
2023/05/15 06:09:58;;;;;;;;;;;27.90;67.80;;;;;;4996729;28;19918;-68
2023/05/15 06:12:24;;;;;;;;;;;28.30;67.80;;;;;;4988613;28;19971;-68
2023/05/15 06:14:49;;;;;;;;;;;28.60;68.10;;;;;;4998114;28;19923;-68
2023/05/15 06:17:15;;;;;;;;;;;29.00;68.50;;;;;;4998437;28;19922;-68
2023/05/15 06:19:40;;;;;;;;;;;29.30;68.40;;;;;;5004382;28;19914;-68
2023/05/15 06:22:06;;;;;;;;;;;29.80;67.80;;;;;;5002916;28;19922;-68
2023/05/15 06:24:31;;;;;;;;;;;30.10;67.80;;;;;;5003000;28;19918;-68
2023/05/15 06:26:57;;;;;;;;;;;30.30;66.30;;;;;;4998417;28;19914;-68
2023/05/15 06:29:22;;;;;;;;;;;30.60;66.50;;;;;;4986837;28;19985;-68
2023/05/15 06:31:48;;;;;;;;;;;30.90;66.20;;;;;;4991986;28;19921;-71
2023/05/15 06:34:13;;;;;;;;;;;31.30;66.60;;;;;;4990758;28;19922;-73
2023/05/15 06:36:39;;;;;;;;;;;31.60;66.30;;;;;;4987106;28;19972;-72
2023/05/15 06:39:04;;;;;;;;;;;31.90;66.70;;;;;;4990407;28;20016;-78
2023/05/15 06:41:31;;;;;;;;;;;32.20;66.80;;;;;;4992485;28;20396;-71
2023/05/15 06:43:56;;;;;;;;;;;32.60;66.70;;;;;;4993753;28;19928;-76
2023/05/15 06:46:22;;;;;;;;;;;32.80;66.00;;;;;;4967901;28;20370;-70
2023/05/15 06:48:47;;;;;;;;;;;33.10;65.80;;;;;;4985757;28;19949;-63
2023/05/15 06:51:12;;;;;;;;;;;33.20;66.90;;;;;;4994417;28;19921;-63
2023/05/15 06:53:39;;;;;;;;;;;33.40;67.80;;;;;;4988072;28;19926;-64
2023/05/15 06:56:05;;;;;;;;;;;33.70;67.60;;;;;;4990047;28;20004;-64
2023/05/15 06:58:30;;;;;;;;;;;33.80;67.80;;;;;;4990885;28;20020;-64
2023/05/15 07:00:55;;;;;;;;;;;34.00;68.30;;;;;;5009844;28;19918;-64
2023/05/15 07:03:21;;;;;;;;;;;34.30;68.00;;;;;;4993231;28;20328;-64
2023/05/15 07:05:46;;;;;;;;;;;34.50;68.10;;;;;;4994348;28;20392;-65
2023/05/15 07:08:12;;;;;;;;;;;34.80;68.20;;;;;;4993710;28;19918;-65
2023/05/15 07:10:37;;;;;;;;;;;35.00;68.50;;;;;;4993578;28;19914;-65
2023/05/15 07:13:03;;;;;;;;;;;35.20;67.80;;;;;;4984083;28;19914;-65
2023/05/15 07:15:28;;;;;;;;;;;35.40;67.90;;;;;;4983251;28;19978;-65
2023/05/15 07:17:54;;;;;;;;;;;35.50;66.00;;;;;;4974579;28;19922;-65
2023/05/15 07:20:19;;;;;;;;;;;35.50;64.90;;;;;;4992144;28;20021;-65
2023/05/15 07:22:45;;;;;;;;;;;35.50;65.30;;;;;;4991271;28;19930;-65
2023/05/15 07:25:10;;;;;;;;;;;35.50;64.30;;;;;;4994239;28;19961;-65
2023/05/15 07:27:36;;;;;;;;;;;35.70;65.40;;;;;;4994166;28;19952;-65
2023/05/15 07:30:02;;;;;;;;;;;35.80;65.30;;;;;;4984432;28;19961;-65
2023/05/15 07:32:28;;;;;;;;;;;36.10;66.20;;;;;;4994474;28;19914;-66
2023/05/15 07:34:54;;;;;;;;;;;36.40;66.70;;;;;;4993560;28;19913;-65
2023/05/15 07:37:19;;;;;;;;;;;36.80;66.10;;;;;;4993899;28;20432;-64
2023/05/15 07:39:45;;;;;;;;;;;37.00;66.10;;;;;;4986178;28;19957;-65
2023/05/15 07:42:10;;;;;;;;;;;37.30;65.00;;;;;;4982351;28;19917;-64
2023/05/15 07:44:36;;;;;;;;;;;37.40;64.30;;;;;;5000855;28;20288;-64
2023/05/15 07:47:01;;;;;;;;;;;37.70;62.80;;;;;;5002133;28;19986;-63
2023/05/15 07:49:27;;;;;;;;;;;37.80;63.70;;;;;;4992845;28;19925;-64
2023/05/15 07:51:52;;;;;;;;;;;38.00;61.60;;;;;;4998206;28;19963;-64
2023/05/15 07:54:17;;;;;;;;;;;38.10;61.20;;;;;;4999022;28;19941;-64
2023/05/15 07:56:43;;;;;;;;;;;38.30;61.90;;;;;;4991466;28;19921;-64
2023/05/15 07:59:08;;;;;;;;;;;38.50;62.00;;;;;;4996113;28;20294;-64
2023/05/15 08:01:34;;;;;;;;;;;38.70;61.10;;;;;;4991207;28;20357;-64
2023/05/15 08:03:59;;;;;;;;;;;38.80;61.50;;;;;;4991950;28;19914;-64
2023/05/15 08:06:25;;;;;;;;;;;39.00;59.70;;;;;;4988526;28;19914;-64
2023/05/15 08:08:50;;;;;;;;;;;39.00;59.10;;;;;;4984196;28;20362;-64
2023/05/15 08:11:16;;;;;;;;;;;39.20;59.30;;;;;;4983268;28;19914;-64
2023/05/15 08:13:42;;;;;;;;;;;39.30;58.20;;;;;;4992936;28;19921;-64
2023/05/15 08:16:07;;;;;;;;;;;39.50;58.00;;;;;;4992890;28;19925;-64
2023/05/15 08:18:33;;;;;;;;;;;39.70;56.80;;;;;;4993059;28;20046;-64
2023/05/15 08:20:58;;;;;;;;;;;39.80;52.40;;;;;;4986041;28;19964;-64
2023/05/15 08:23:24;;;;;;;;;;;39.70;49.90;;;;;;4998460;28;19964;-64
2023/05/15 08:25:49;;;;;;;;;;;39.60;48.10;;;;;;5001349;28;19922;-64
2023/05/15 08:28:15;;;;;;;;;;;39.30;45.50;;;;;;4996280;28;19914;-64
2023/05/15 08:30:40;;;;;;;;;;;39.20;48.20;;;;;;4988804;28;19914;-64
2023/05/15 08:33:06;;;;;;;;;;;39.30;47.30;;;;;;4989113;28;20385;-64
2023/05/15 08:35:31;;;;;;;;;;;39.40;48.00;;;;;;4997842;28;19924;-64
2023/05/15 08:37:57;;;;;;;;;;;39.40;42.90;;;;;;4994129;28;19918;-64
2023/05/15 08:40:22;;;;;;;;;;;39.30;43.50;;;;;;4984993;28;19918;-64
2023/05/15 08:43:00;;;;;;;;;;;39.40;43.50;;;;;;4988835;28;19918;-64
2023/05/15 08:45:25;;;;;;;;;;;39.50;42.40;;;;;;4993129;28;20005;-64
2023/05/15 08:47:52;;;;;;;;;;;39.70;38.80;;;;;;4996796;28;20009;-63
2023/05/15 08:50:18;;;;;;;;;;;39.60;34.40;;;;;;4982197;28;19961;-63
2023/05/15 08:52:45;;;;;;;;;;;39.50;33.00;;;;;;4995352;28;19926;-63
2023/05/15 08:55:12;;;;;;;;;;;39.30;33.20;;;;;;4998323;28;19910;-63
2023/05/15 08:57:37;;;;;;;;;;;39.20;31.50;;;;;;4991221;28;20268;-64
2023/05/15 09:00:07;;;;;;;;;;;39.00;30.70;;;;;;4995124;28;19925;-63
2023/05/15 09:02:36;;;;;;;;;;;38.80;29.70;;;;;;4990720;28;20250;-63
2023/05/15 09:05:02;;;;;;;;;;;38.80;30.70;;;;;;4996748;28;20017;-63
2023/05/15 09:07:29;;;;;;;;;;;38.70;28.50;;;;;;4992611;28;19977;-63
2023/05/15 09:09:55;;;;;;;;;;;38.70;27.30;;;;;;4992865;28;19918;-63
2023/05/15 09:12:22;;;;;;;;;;;38.30;25.20;;;;;;4991437;28;19917;-63
2023/05/15 09:14:48;;;;;;;;;;;38.20;27.70;;;;;;4969984;28;20012;-63
2023/05/15 09:17:13;;;;;;;;;;;38.20;26.10;;;;;;4991067;28;20424;-63
2023/05/15 09:19:40;;;;;;;;;;;38.30;27.10;;;;;;4987285;28;20338;-62
2023/05/15 09:22:23;;;;;;;;;;;38.50;26.90;;;;;;4987755;28;20004;-63
2023/05/15 09:24:51;;;;;;;;;;;38.70;28.20;;;;;;4969336;28;19918;-62
2023/05/15 09:27:16;;;;;;;;;;;39.00;29.10;;;;;;4988170;28;19960;-62
2023/05/15 09:29:42;;;;;;;;;;;39.20;29.90;;;;;;4991910;28;19946;-62
2023/05/15 09:32:12;;;;;;;;;;;39.60;30.40;;;;;;4991280;28;19960;-63
2023/05/15 09:34:39;;;;;;;;;;;40.00;30.40;;;;;;4987678;28;19946;-63
2023/05/15 09:37:05;;;;;;;;;;;40.40;29.70;;;;;;4989486;28;20012;-64
2023/05/15 09:39:31;;;;;;;;;;;40.40;28.60;;;;;;4984364;28;19926;-63
2023/05/15 09:42:07;;;;;;;;;;;40.20;28.40;;;;;;4987211;28;19918;-64
2023/05/15 09:44:33;;;;;;;;;;;40.10;26.90;;;;;;4977417;28;19922;-63
2023/05/15 09:47:03;;;;;;;;;;;40.00;27.70;;;;;;4988113;28;19960;-63
2023/05/15 09:49:30;;;;;;;;;;;40.30;27.00;;;;;;4981384;28;20431;-63
2023/05/15 09:51:59;;;;;;;;;;;40.00;25.40;;;;;;4987281;28;19917;-64
2023/05/15 09:54:26;;;;;;;;;;;40.00;25.80;;;;;;4988684;28;19964;-64
2023/05/15 09:56:51;;;;;;;;;;;40.20;25.20;;;;;;4980206;28;19972;-64
2023/05/15 09:59:18;;;;;;;;;;;40.30;25.00;;;;;;4988330;28;20317;-63
2023/05/15 10:01:50;;;;;;;;;;;40.10;23.40;;;;;;4998754;28;20001;-64
2023/05/15 10:04:16;;;;;;;;;;;39.30;24.40;;;;;;4986882;28;19953;-64
2023/05/15 10:06:42;;;;;;;;;;;38.50;24.50;;;;;;4981537;28;19949;-63
2023/05/15 10:09:09;;;;;;;;;;;37.80;24.80;;;;;;4991703;28;19917;-63
2023/05/15 10:11:38;;;;;;;;;;;37.20;25.00;;;;;;4989101;28;19924;-63
2023/05/15 10:14:04;;;;;;;;;;;36.60;24.60;;;;;;4989836;28;20407;-64
2023/05/15 10:16:32;;;;;;;;;;;36.10;24.30;;;;;;4993671;28;19921;-62
2023/05/15 10:18:58;;;;;;;;;;;35.50;23.60;;;;;;4994996;28;19946;-63
2023/05/15 10:21:23;;;;;;;;;;;35.10;23.80;;;;;;4991856;28;19953;-64
2023/05/15 10:23:49;;;;;;;;;;;35.30;24.00;;;;;;4987068;28;19924;-63
2023/05/15 10:26:22;;;;;;;;;;;35.70;23.70;;;;;;4992024;28;20381;-63
2023/05/15 10:28:48;;;;;;;;;;;36.00;23.50;;;;;;4991458;28;20004;-62
2023/05/15 10:31:14;;;;;;;;;;;36.10;23.50;;;;;;4984112;28;19921;-62
2023/05/15 10:33:40;;;;;;;;;;;35.80;22.50;;;;;;4986739;28;19922;-63
2023/05/15 10:36:06;;;;;;;;;;;35.70;22.70;;;;;;4990751;28;19964;-63
2023/05/15 10:38:31;;;;;;;;;;;35.90;23.00;;;;;;4989905;28;19980;-63
2023/05/15 10:40:58;;;;;;;;;;;36.10;22.70;;;;;;4992273;28;20345;-63
2023/05/15 10:43:25;;;;;;;;;;;36.20;22.00;;;;;;4991868;28;20442;-63
2023/05/15 10:45:51;;;;;;;;;;;36.10;21.70;;;;;;5003129;28;19913;-63
2023/05/15 10:48:17;;;;;;;;;;;36.00;22.10;;;;;;4993045;28;21670;-63
2023/05/15 10:50:42;;;;;;;;;;;35.90;22.20;;;;;;4994273;28;19919;-62
2023/05/15 10:53:08;;;;;;;;;;;36.00;21.70;;;;;;4993668;28;20335;-64
2023/05/15 10:55:35;;;;;;;;;;;36.10;21.90;;;;;;5000567;28;19921;-63
2023/05/15 10:58:00;;;;;;;;;;;36.30;22.10;;;;;;4996109;28;20304;-63
2023/05/15 11:00:27;;;;;;;;;;;36.40;21.90;;;;;;4993606;28;19910;-62
2023/05/15 11:02:55;;;;;;;;;;;36.50;22.00;;;;;;4994752;28;19924;-62
2023/05/15 11:05:20;;;;;;;;;;;36.70;21.40;;;;;;4987978;28;19914;-63
2023/05/15 11:08:05;;;;;;;;;;;36.70;20.60;;;;;;4978837;28;20377;-62
2023/05/15 11:10:30;;;;;;;;;;;36.80;20.90;;;;;;4993489;28;19914;-63
2023/05/15 11:12:57;;;;;;;;;;;36.20;21.10;;;;;;4997846;28;19936;-63
2023/05/15 11:15:22;;;;;;;;;;;35.50;21.50;;;;;;5003583;28;19916;-63
2023/05/15 11:18:04;;;;;;;;;;;34.70;22.30;;;;;;4993016;28;19921;-62
2023/05/15 11:20:40;;;;;;;;;;;33.90;22.40;;;;;;4991075;28;19925;-62
2023/05/15 11:23:05;;;;;;;;;;;32.90;23.70;;;;;;4992853;28;19921;-62
2023/05/15 11:25:31;;;;;;;;;;;32.00;28.00;;;;;;4990360;28;19914;-61
2023/05/15 11:27:56;;;;;;;;;;;30.70;37.10;;;;;;4993014;28;19929;-59
2023/05/15 11:30:32;;;;;;;;;;;29.10;43.40;;;;;;4992177;28;19920;-59
2023/05/15 11:32:59;;;;;;;;;;;27.80;48.80;;;;;;4986328;28;19918;-59
2023/05/15 11:35:42;;;;;;;;;;;26.80;52.10;;;;;;4991346;28;20358;-59
2023/05/15 11:38:33;;;;;;;;;;;26.20;55.40;;;;;;4992559;28;20064;-58
2023/05/15 11:41:01;;;;;;;;;;;25.70;57.70;;;;;;4988320;28;19937;-59
2023/05/15 11:43:36;;;;;;;;;;;25.30;60.10;;;;;;4996463;28;19929;-58
2023/05/15 11:46:01;;;;;;;;;;;25.20;60.70;;;;;;4991397;28;20273;-61
2023/05/15 11:48:30;;;;;;;;;;;25.10;62.10;;;;;;4992288;28;19937;-60
2023/05/15 11:50:56;;;;;;;;;;;25.10;62.90;;;;;;4992015;28;19914;-60
2023/05/15 11:53:22;;;;;;;;;;;25.10;63.90;;;;;;4997766;28;20008;-60
2023/05/15 11:55:50;;;;;;;;;;;25.30;65.10;;;;;;4987479;28;19921;-60
2023/05/15 11:58:16;;;;;;;;;;;25.90;66.30;;;;;;4993789;28;20337;-59
2023/05/15 12:00:43;;;;;;;;;;;26.70;64.80;;;;;;4991411;28;19913;-59
2023/05/15 12:03:31;;;;;;;;;;;27.00;64.00;;;;;;4991664;28;19921;-60
2023/05/15 12:05:57;;;;;;;;;;;26.90;62.90;;;;;;4989502;28;20010;-60
2023/05/15 12:08:22;;;;;;;;;;;26.70;62.30;;;;;;4992222;28;20005;-60
2023/05/15 12:10:47;;;;;;;;;;;26.80;64.90;;;;;;4992030;28;19921;-61
2023/05/15 12:13:14;;;;;;;;;;;27.50;65.40;;;;;;4996448;28;20359;-60
2023/05/15 12:15:40;;;;;;;;;;;27.80;64.20;;;;;;4988244;28;19914;-60
2023/05/15 12:18:07;;;;;;;;;;;27.80;60.80;;;;;;4992045;28;20012;-60
2023/05/15 12:20:36;;;;;;;;;;;27.70;63.10;;;;;;4990805;28;19918;-60
2023/05/15 12:23:05;;;;;;;;;;;27.60;63.00;;;;;;4994480;28;19917;-60
2023/05/15 12:25:31;;;;;;;;;;;27.40;64.70;;;;;;4989976;28;20388;-60
2023/05/15 12:27:57;;;;;;;;;;;27.40;61.60;;;;;;4991331;28;20021;-60
2023/05/15 12:30:23;;;;;;;;;;;27.30;61.90;;;;;;4992102;28;20390;-61
2023/05/15 12:32:48;;;;;;;;;;;27.30;61.20;;;;;;4989917;28;19925;-60
2023/05/15 12:35:14;;;;;;;;;;;27.30;61.60;;;;;;4974644;28;19921;-60
2023/05/15 12:37:40;;;;;;;;;;;27.80;62.30;;;;;;4990614;28;19965;-61
2023/05/15 12:40:10;;;;;;;;;;;28.10;59.30;;;;;;4991296;28;20281;-61
2023/05/15 12:42:43;;;;;;;;;;;28.20;57.90;;;;;;4992812;28;20322;-61
2023/05/15 12:45:15;;;;;;;;;;;28.20;60.30;;;;;;4991842;28;20020;-71
2023/05/15 12:47:41;;;;;;;;;;;27.90;62.30;;;;;;4998225;28;20336;-68
2023/05/15 12:50:14;;;;;;;;;;;27.50;64.50;;;;;;5001303;28;20293;-70
2023/05/15 12:52:44;;;;;;;;;;;27.40;64.80;;;;;;4994603;28;20301;-68
2023/05/15 12:55:14;;;;;;;;;;;27.30;64.50;;;;;;4992436;28;20398;-69
2023/05/15 12:57:40;;;;;;;;;;;27.20;63.80;;;;;;4996258;28;20369;-69
2023/05/15 13:00:09;;;;;;;;;;;27.40;66.00;;;;;;4999050;28;20325;-73
2023/05/15 13:02:37;;;;;;;;;;;27.90;66.60;;;;;;4999211;28;19921;-78
2023/05/15 13:05:03;;;;;;;;;;;28.30;66.70;;;;;;4998359;28;20293;-71
2023/05/15 13:07:28;;;;;;;;;;;28.70;65.10;;;;;;4976081;28;19914;-71
2023/05/15 13:10:06;;;;;;;;;;;29.00;63.00;;;;;;4992004;28;19914;-71
2023/05/15 13:12:36;;;;;;;;;;;29.30;62.50;;;;;;4994357;28;20366;-73
2023/05/15 13:15:02;;;;;;;;;;;29.50;54.90;;;;;;4995935;28;20014;-71
2023/05/15 13:17:28;;;;;;;;;;;29.60;59.20;;;;;;4991768;28;20348;-71
2023/05/15 13:19:54;;;;;;;;;;;29.80;60.50;;;;;;4986128;28;20009;-71
2023/05/15 13:22:19;;;;;;;;;;;30.00;54.40;;;;;;4990935;28;20024;-77
2023/05/15 13:24:50;;;;;;;;;;;29.80;48.40;;;;;;5004834;28;19965;-82
2023/05/15 13:27:16;;;;;;;;;;;29.80;46.10;;;;;;5000970;28;19937;-84
2023/05/15 13:29:41;;;;;;;;;;;29.50;42.70;;;;;;4988011;28;20333;-84
2023/05/15 13:32:07;;;;;;;;;;;29.30;44.80;;;;;;4978426;28;19918;-84
2023/05/15 13:34:32;;;;;;;;;;;29.50;45.10;;;;;;5000430;28;20041;-84
2023/05/15 13:36:58;;;;;;;;;;;29.60;41.80;;;;;;4978120;28;19918;-83
2023/05/15 13:39:23;;;;;;;;;;;29.60;41.30;;;;;;4987652;28;19925;-84
2023/05/15 13:41:48;;;;;;;;;;;29.70;40.60;;;;;;4975956;28;19914;-81
2023/05/15 13:44:14;;;;;;;;;;;29.90;43.10;;;;;;5003012;28;19957;-83
2023/05/15 13:46:39;;;;;;;;;;;30.30;42.10;;;;;;4998773;28;20366;-85
2023/05/15 13:49:05;;;;;;;;;;;30.40;37.50;;;;;;5003311;28;19917;-84
2023/05/15 13:51:30;;;;;;;;;;;30.30;37.20;;;;;;4984146;28;20374;-85
2023/05/15 13:53:56;;;;;;;;;;;30.40;34.50;;;;;;5013864;28;19917;-82
2023/05/15 13:56:21;;;;;;;;;;;30.30;32.90;;;;;;4985089;28;19918;-84
2023/05/15 13:58:47;;;;;;;;;;;30.40;33.70;;;;;;4974866;28;19918;-84
2023/05/15 14:01:12;;;;;;;;;;;30.60;33.60;;;;;;4978742;28;19925;-86
2023/05/15 14:03:38;;;;;;;;;;;30.60;32.10;;;;;;4995340;28;20408;-85
2023/05/15 14:06:03;;;;;;;;;;;30.30;30.10;;;;;;5001871;28;19945;-76
2023/05/15 14:08:29;;;;;;;;;;;30.10;29.20;;;;;;4993338;28;20289;-76
2023/05/15 14:10:54;;;;;;;;;;;29.90;29.80;;;;;;4992688;28;20293;-76
2023/05/15 14:13:20;;;;;;;;;;;29.90;30.50;;;;;;4991184;28;19953;-76
2023/05/15 14:15:46;;;;;;;;;;;29.90;30.80;;;;;;4982480;28;19914;-75